Time;durP1;ratioP1;P1;durP2;ratioP2;P2;SDS_P1;SDS_P2;PMS_P1;PMS_P2;Temp;Humidity;BMP_temperature;BMP_pressure;BME280_temperature;BME280_humidity;BME280_pressure;Samples;Min_cycle;Max_cycle;Signal;HPM_P1;HPM_P2
2022/08/01 00:00:18;;;;;;;6.85;5.25;;;15.70;99.90;;;;;;8338122;28;20021;-82
2022/08/01 00:04:18;;;;;;;6.20;5.60;;;15.70;99.90;;;;;;8345720;28;20479;-81
2022/08/01 00:08:19;;;;;;;6.88;5.40;;;15.60;99.90;;;;;;8341198;28;20145;-80
2022/08/01 00:12:19;;;;;;;5.82;4.50;;;15.60;99.90;;;;;;8341176;28;20525;-80
2022/08/01 00:16:22;;;;;;;7.85;4.93;;;15.70;99.90;;;;;;8343425;28;20554;-81
2022/08/01 00:20:22;;;;;;;5.50;5.00;;;15.60;99.90;;;;;;8349424;28;20025;-80
2022/08/01 00:24:23;;;;;;;5.65;5.05;;;15.40;99.90;;;;;;8342328;28;20054;-81
2022/08/01 00:28:24;;;;;;;6.22;4.63;;;15.40;99.90;;;;;;8335174;28;20036;-81
2022/08/01 00:32:24;;;;;;;5.57;4.82;;;15.40;99.90;;;;;;8324563;28;20056;-81
2022/08/01 00:36:25;;;;;;;6.00;4.78;;;15.40;99.90;;;;;;8345381;28;20078;-80
2022/08/01 00:40:25;;;;;;;6.05;4.28;;;15.30;99.90;;;;;;8342896;28;20021;-80
2022/08/01 00:44:27;;;;;;;5.93;4.32;;;15.30;99.90;;;;;;8332220;28;20536;-82
2022/08/01 00:48:27;;;;;;;5.57;4.13;;;15.30;99.90;;;;;;8333741;28;20407;-80
2022/08/01 00:52:28;;;;;;;5.00;4.07;;;15.40;99.90;;;;;;8336141;28;20036;-81
2022/08/01 00:56:28;;;;;;;5.00;4.50;;;15.30;99.90;;;;;;8342829;28;20088;-80
2022/08/01 01:00:29;;;;;;;5.25;4.28;;;15.50;99.90;;;;;;8335015;28;20025;-81
2022/08/01 01:04:29;;;;;;;5.88;4.07;;;15.60;99.90;;;;;;8337885;28;20436;-81
2022/08/01 01:08:39;;;;;;;6.25;4.50;;;15.50;99.90;;;;;;8337902;28;20127;-82
2022/08/01 01:13:02;;;;;;;6.18;4.43;;;15.40;99.90;;;;;;8339471;28;20020;-81
2022/08/01 01:17:07;;;;;;;5.50;4.50;;;15.20;99.90;;;;;;8340192;28;20553;-80
2022/08/01 01:21:17;;;;;;;8.95;4.13;;;15.10;99.90;;;;;;8345885;28;20047;-81
2022/08/01 01:25:24;;;;;;;6.55;4.60;;;15.10;99.90;;;;;;8336098;28;20025;-81
2022/08/01 01:29:42;;;;;;;5.72;4.47;;;15.00;99.90;;;;;;8328487;28;20034;-80
2022/08/01 01:33:43;;;;;;;5.75;4.38;;;14.90;99.90;;;;;;8342249;28;20452;-80
2022/08/01 01:37:45;;;;;;;5.22;4.72;;;14.80;99.90;;;;;;8328576;28;20021;-80
2022/08/01 01:41:48;;;;;;;5.82;4.70;;;14.70;99.90;;;;;;8334054;28;20033;-81
2022/08/01 01:45:50;;;;;;;5.30;4.65;;;14.60;99.90;;;;;;8341607;28;20536;-81
2022/08/01 01:49:53;;;;;;;5.05;4.55;;;14.60;99.90;;;;;;8343046;28;20021;-81
2022/08/01 01:53:56;;;;;;;8.55;4.97;;;14.70;99.90;;;;;;8351553;28;20402;-80
2022/08/01 01:57:57;;;;;;;4.88;4.30;;;14.70;99.90;;;;;;8349704;28;20112;-81
2022/08/01 02:02:01;;;;;;;6.10;5.15;;;14.70;99.90;;;;;;8350499;28;20026;-81
2022/08/01 02:06:03;;;;;;;5.10;4.53;;;14.70;99.90;;;;;;8350640;28;20033;-81
2022/08/01 02:10:06;;;;;;;5.20;4.45;;;14.60;99.90;;;;;;8338562;28;20021;-81
2022/08/01 02:14:08;;;;;;;5.47;4.97;;;14.40;99.90;;;;;;8340391;28;20025;-80
2022/08/01 02:18:11;;;;;;;5.43;4.50;;;14.50;99.90;;;;;;8337806;28;20113;-80
2022/08/01 02:22:20;;;;;;;5.45;4.53;;;14.30;99.90;;;;;;8340917;28;20064;-80
2022/08/01 02:26:24;;;;;;;5.65;4.90;;;14.30;99.90;;;;;;8368415;22;20535;-79
2022/08/01 02:30:25;;;;;;;6.43;4.53;;;14.30;99.90;;;;;;8358427;28;20024;-83
2022/08/01 02:34:31;;;;;;;7.68;4.72;;;14.40;99.90;;;;;;8352591;28;20060;-78
2022/08/01 02:38:34;;;;;;;5.32;4.25;;;14.40;99.90;;;;;;8342261;28;20033;-79
2022/08/01 02:42:37;;;;;;;6.80;5.88;;;14.30;99.90;;;;;;8345931;28;20382;-78
2022/08/01 02:46:46;;;;;;;4.68;4.28;;;14.20;99.90;;;;;;8335445;28;20555;-78
2022/08/01 02:50:50;;;;;;;6.80;4.88;;;14.20;99.90;;;;;;8337293;28;20389;-79
2022/08/01 02:54:54;;;;;;;5.65;4.65;;;14.10;99.90;;;;;;8346085;28;20056;-79
2022/08/01 02:58:55;;;;;;;4.60;4.18;;;14.10;99.90;;;;;;8336043;28;20033;-78
2022/08/01 03:02:57;;;;;;;5.30;4.25;;;14.10;99.90;;;;;;8352091;28;20033;-79
2022/08/01 03:07:00;;;;;;;5.82;4.22;;;14.20;99.90;;;;;;8343588;28;20115;-79
2022/08/01 03:11:02;;;;;;;5.00;4.50;;;14.30;99.90;;;;;;8349973;28;20035;-79
2022/08/01 03:15:04;;;;;;;10.05;4.22;;;14.40;99.90;;;;;;8334722;28;20033;-79
2022/08/01 03:19:07;;;;;;;6.43;4.22;;;14.10;99.90;;;;;;8343347;28;20021;-79
2022/08/01 03:23:09;;;;;;;7.50;4.35;;;14.00;99.90;;;;;;8337787;28;20039;-79
2022/08/01 03:27:11;;;;;;;5.88;4.30;;;13.90;99.90;;;;;;8330490;28;20033;-79
2022/08/01 03:31:13;;;;;;;5.63;4.32;;;13.80;99.90;;;;;;8334005;28;20021;-79
2022/08/01 03:35:14;;;;;;;7.35;4.90;;;13.70;99.90;;;;;;8329499;28;20474;-79
2022/08/01 03:39:17;;;;;;;7.32;4.90;;;13.70;99.90;;;;;;8325476;28;20053;-79
2022/08/01 03:43:36;;;;;;;4.70;4.30;;;13.60;99.90;;;;;;8325504;28;20025;-79
2022/08/01 03:47:42;;;;;;;7.28;4.13;;;13.40;99.90;;;;;;8325911;28;20076;-79
2022/08/01 03:51:47;;;;;;;5.88;4.63;;;13.30;99.90;;;;;;8320738;28;20036;-78
2022/08/01 03:55:49;;;;;;;9.45;4.75;;;13.30;99.90;;;;;;8332459;28;20029;-79
2022/08/01 03:59:51;;;;;;;5.95;4.82;;;13.40;99.90;;;;;;8331948;28;20630;-79
2022/08/01 04:03:51;;;;;;;6.30;4.97;;;13.40;99.90;;;;;;8330891;28;20036;-79
2022/08/01 04:07:55;;;;;;;7.32;5.03;;;13.30;99.90;;;;;;8328416;28;20124;-79
2022/08/01 04:11:56;;;;;;;7.38;5.00;;;13.30;99.90;;;;;;8330602;28;20428;-79
2022/08/01 04:15:57;;;;;;;5.85;5.28;;;13.50;99.90;;;;;;8338139;28;20102;-79
2022/08/01 04:19:57;;;;;;;8.05;5.22;;;13.50;99.90;;;;;;8340222;28;20256;-79
2022/08/01 04:24:04;;;;;;;7.85;5.00;;;13.50;99.90;;;;;;8330303;28;20029;-79
2022/08/01 04:28:08;;;;;;;6.10;4.90;;;13.50;99.90;;;;;;8329268;28;20308;-78
2022/08/01 04:32:12;;;;;;;5.68;4.80;;;13.60;99.90;;;;;;8330056;28;20037;-79
2022/08/01 04:36:15;;;;;;;7.97;5.40;;;13.60;99.90;;;;;;8328893;28;20421;-79
2022/08/01 04:40:16;;;;;;;8.93;5.55;;;13.70;99.90;;;;;;8329434;28;20024;-79
2022/08/01 04:44:17;;;;;;;7.70;5.57;;;13.90;99.90;;;;;;8333863;28;20025;-79
2022/08/01 04:48:20;;;;;;;7.18;5.20;;;14.20;99.90;;;;;;8333066;28;20136;-79
2022/08/01 04:52:21;;;;;;;7.50;5.18;;;14.60;99.90;;;;;;8331920;28;20032;-79
2022/08/01 04:56:21;;;;;;;10.90;8.13;;;15.00;99.90;;;;;;8323038;28;20017;-79
2022/08/01 05:00:22;;;;;;;14.35;8.95;;;15.40;99.90;;;;;;8328480;28;20269;-79
2022/08/01 05:04:23;;;;;;;12.32;7.60;;;15.60;99.90;;;;;;8326197;28;20029;-79
2022/08/01 05:08:24;;;;;;;5.63;4.13;;;16.10;99.90;;;;;;8328465;28;20497;-79
2022/08/01 05:12:24;;;;;;;5.90;4.05;;;16.40;99.90;;;;;;8322269;28;20065;-77
2022/08/01 05:16:26;;;;;;;4.85;3.80;;;16.80;99.90;;;;;;8320055;28;20061;-77
2022/08/01 05:20:26;;;;;;;5.65;4.03;;;17.20;99.90;;;;;;8331977;28;20018;-78
2022/08/01 05:24:30;;;;;;;4.75;3.90;;;17.60;99.90;;;;;;8329856;28;20033;-77
2022/08/01 05:28:31;;;;;;;5.15;3.63;;;17.80;99.90;;;;;;8339505;28;20036;-77
2022/08/01 05:32:31;;;;;;;4.93;3.55;;;18.30;99.90;;;;;;8337119;28;20049;-78
2022/08/01 05:36:32;;;;;;;4.32;2.97;;;18.70;99.90;;;;;;8330337;28;20041;-77
2022/08/01 05:40:32;;;;;;;4.53;3.33;;;18.90;99.90;;;;;;8330681;28;20469;-78
2022/08/01 05:44:33;;;;;;;4.35;3.55;;;19.00;99.90;;;;;;8340247;28;20045;-78
2022/08/01 05:48:33;;;;;;;5.30;3.15;;;19.10;99.90;;;;;;8332792;28;20021;-78
2022/08/01 05:52:34;;;;;;;5.47;3.20;;;19.60;99.90;;;;;;8335080;28;20053;-78
2022/08/01 05:56:34;;;;;;;3.67;3.10;;;20.10;99.90;;;;;;8333753;28;20021;-78
2022/08/01 06:00:35;;;;;;;5.13;3.20;;;21.70;99.90;;;;;;8334865;28;20017;-83
2022/08/01 06:04:36;;;;;;;5.30;2.88;;;21.90;99.90;;;;;;8335435;28;20021;-79
2022/08/01 06:08:36;;;;;;;4.68;2.72;;;23.00;99.90;;;;;;8333333;28;20493;-79
2022/08/01 06:12:37;;;;;;;3.72;2.90;;;24.00;99.90;;;;;;8330488;28;20030;-80
2022/08/01 06:16:37;;;;;;;16.38;14.23;;;24.40;99.90;;;;;;8333978;28;20025;-80
2022/08/01 06:20:38;;;;;;;4.35;2.92;;;25.20;99.90;;;;;;8337064;28;20025;-80
2022/08/01 06:24:38;;;;;;;5.22;2.67;;;25.70;99.90;;;;;;8342358;28;20308;-80
2022/08/01 06:28:39;;;;;;;3.33;2.40;;;26.40;99.90;;;;;;8334035;28;20052;-80
2022/08/01 06:32:40;;;;;;;4.80;2.45;;;26.90;99.90;;;;;;8326326;28;20057;-80
2022/08/01 06:36:40;;;;;;;3.63;2.25;;;27.00;99.90;;;;;;8344505;28;20036;-80
2022/08/01 06:40:41;;;;;;;3.60;2.42;;;27.20;99.90;;;;;;8331793;28;20053;-80
2022/08/01 06:44:41;;;;;;;3.20;2.35;;;27.70;99.90;;;;;;8339155;28;20099;-80
2022/08/01 06:48:42;;;;;;;3.83;2.40;;;28.00;98.70;;;;;;8329695;28;20040;-80
2022/08/01 06:52:42;;;;;;;2.88;2.00;;;27.80;99.90;;;;;;8340319;28;20052;-80
2022/08/01 06:56:43;;;;;;;2.67;1.98;;;27.90;97.30;;;;;;8337125;28;20037;-79
2022/08/01 07:00:44;;;;;;;3.20;1.67;;;27.30;99.30;;;;;;8338460;28;20045;-80
2022/08/01 07:04:44;;;;;;;2.05;1.90;;;26.80;99.60;;;;;;8330575;28;20037;-80
2022/08/01 07:08:45;;;;;;;1.90;1.70;;;26.90;97.50;;;;;;8334298;28;20057;-80
2022/08/01 07:12:45;;;;;;;3.58;1.80;;;27.50;98.10;;;;;;8332182;28;20382;-79
2022/08/01 07:16:46;;;;;;;2.13;1.92;;;27.00;98.50;;;;;;8339545;28;20029;-80
2022/08/01 07:20:46;;;;;;;3.97;2.10;;;26.90;99.90;;;;;;8330477;28;20513;-80
2022/08/01 07:24:47;;;;;;;4.85;2.55;;;27.40;98.80;;;;;;8326052;28;20033;-79
2022/08/01 07:28:47;;;;;;;2.15;1.95;;;27.10;97.60;;;;;;8327326;28;20500;-80
2022/08/01 07:32:48;;;;;;;3.58;3.25;;;27.50;96.50;;;;;;8338223;28;20040;-79
2022/08/01 07:36:49;;;;;;;3.80;2.50;;;27.90;95.20;;;;;;8338160;28;20464;-80
2022/08/01 07:40:49;;;;;;;3.03;2.28;;;27.70;96.80;;;;;;8330042;28;20044;-80
2022/08/01 07:44:50;;;;;;;5.68;2.33;;;28.40;94.30;;;;;;8330434;28;20087;-80
2022/08/01 07:48:51;;;;;;;5.35;2.30;;;28.40;97.50;;;;;;8340488;28;20098;-80
2022/08/01 07:52:51;;;;;;;3.08;2.25;;;28.60;94.60;;;;;;8327143;28;20064;-80
2022/08/01 07:56:52;;;;;;;2.55;2.30;;;28.80;95.30;;;;;;8339145;28;20027;-80
2022/08/01 08:00:53;;;;;;;3.58;2.33;;;29.30;95.10;;;;;;8331412;28;20497;-79
2022/08/01 08:04:53;;;;;;;2.67;2.17;;;28.80;93.50;;;;;;8330698;28;20025;-80
2022/08/01 08:08:54;;;;;;;2.38;2.17;;;28.70;92.30;;;;;;8329540;28;20315;-80
2022/08/01 08:12:54;;;;;;;2.38;2.05;;;28.90;91.80;;;;;;8324964;28;20040;-80
2022/08/01 08:16:55;;;;;;;2.20;2.00;;;29.00;91.70;;;;;;8333216;28;20028;-80
2022/08/01 08:20:55;;;;;;;2.92;1.95;;;28.90;91.60;;;;;;8326016;28;20021;-79
2022/08/01 08:24:56;;;;;;;2.63;2.15;;;28.70;90.90;;;;;;8328567;28;20474;-79
2022/08/01 08:28:56;;;;;;;6.78;2.33;;;28.30;92.70;;;;;;8326087;28;20040;-79
2022/08/01 08:32:57;;;;;;;3.40;2.28;;;27.60;93.00;;;;;;8331183;28;20435;-79
2022/08/01 08:36:58;;;;;;;2.45;2.20;;;27.70;94.60;;;;;;8337255;28;20108;-80
2022/08/01 08:40:59;;;;;;;2.67;2.08;;;27.90;95.20;;;;;;8331310;28;20442;-80
2022/08/01 08:45:00;;;;;;;4.38;2.15;;;28.30;93.40;;;;;;8333165;28;20057;-80
2022/08/01 08:49:03;;;;;;;4.25;1.88;;;28.40;93.90;;;;;;8323500;28;20044;-80
2022/08/01 08:53:04;;;;;;;2.53;2.03;;;28.40;93.20;;;;;;8332481;28;20056;-80
2022/08/01 08:57:05;;;;;;;2.72;2.00;;;28.60;92.10;;;;;;8323520;28;20025;-82
2022/08/01 09:01:06;;;;;;;2.50;2.30;;;29.00;90.40;;;;;;8329320;28;20021;-80
2022/08/01 09:05:08;;;;;;;2.25;2.05;;;28.50;93.60;;;;;;8328481;28;20022;-80
2022/08/01 09:09:10;;;;;;;2.30;2.10;;;29.00;91.30;;;;;;8324113;28;20017;-79
2022/08/01 09:13:13;;;;;;;2.03;1.83;;;29.10;96.30;;;;;;8331244;28;20021;-80
2022/08/01 09:17:14;;;;;;;3.30;2.75;;;28.80;94.00;;;;;;8342769;28;20071;-79
2022/08/01 09:21:23;;;;;;;2.40;2.05;;;28.60;92.80;;;;;;8331178;28;20013;-80
2022/08/01 09:25:24;;;;;;;2.30;2.10;;;28.70;93.50;;;;;;8323778;28;20026;-80
2022/08/01 09:29:27;;;;;;;2.55;1.98;;;29.00;91.80;;;;;;8329779;28;20068;-80
2022/08/01 09:33:49;;;;;;;2.60;1.95;;;29.30;93.60;;;;;;8326471;28;20558;-79
2022/08/01 09:37:49;;;;;;;2.67;2.30;;;28.60;93.50;;;;;;8325481;28;20489;-79
2022/08/01 09:41:50;;;;;;;5.53;1.90;;;28.30;92.80;;;;;;8330976;28;20060;-80
2022/08/01 09:45:52;;;;;;;2.22;1.90;;;28.70;95.30;;;;;;8333570;28;20094;-79
2022/08/01 09:49:56;;;;;;;2.75;2.00;;;28.50;94.10;;;;;;8332161;28;20450;-80
2022/08/01 09:53:58;;;;;;;2.30;1.80;;;28.90;92.90;;;;;;8331351;28;20029;-80
2022/08/01 09:58:00;;;;;;;2.47;2.28;;;29.40;93.50;;;;;;8327883;28;20112;-80
2022/08/01 10:02:01;;;;;;;3.50;2.03;;;29.00;93.10;;;;;;8327212;28;20025;-79
2022/08/01 10:06:19;;;;;;;1.70;1.60;;;28.90;93.20;;;;;;8328580;28;20025;-79
2022/08/01 10:10:19;;;;;;;2.63;1.60;;;29.20;90.90;;;;;;8338946;28;20043;-79
2022/08/01 10:14:21;;;;;;;2.97;1.48;;;29.00;90.60;;;;;;8334824;28;20108;-79
2022/08/01 10:18:22;;;;;;;1.65;1.30;;;29.40;89.80;;;;;;8332535;28;20524;-80
2022/08/01 10:22:24;;;;;;;2.15;1.42;;;30.00;89.50;;;;;;8330347;28;20029;-82
2022/08/01 10:26:26;;;;;;;1.25;1.15;;;30.50;87.60;;;;;;8342328;28;20501;-82
2022/08/01 10:30:28;;;;;;;3.35;1.30;;;30.70;90.50;;;;;;8336782;28;20049;-81
2022/08/01 10:34:30;;;;;;;1.80;1.40;;;30.40;87.20;;;;;;8329172;28;20030;-81
2022/08/01 10:38:30;;;;;;;1.70;1.50;;;29.80;87.50;;;;;;8337836;28;20028;-80
2022/08/01 10:42:31;;;;;;;1.92;1.60;;;30.00;81.00;;;;;;8344078;28;20048;-81
2022/08/01 10:46:34;;;;;;;3.05;1.70;;;29.80;83.60;;;;;;8336688;28;20184;-79
2022/08/01 10:50:42;;;;;;;3.65;1.60;;;30.60;83.70;;;;;;8339061;28;20037;-81
2022/08/01 10:54:43;;;;;;;2.78;1.60;;;31.50;78.40;;;;;;8332671;28;20029;-81
2022/08/01 10:58:46;;;;;;;1.73;1.60;;;32.00;80.50;;;;;;8345534;28;20025;-81
2022/08/01 11:03:00;;;;;;;3.78;1.50;;;32.80;75.30;;;;;;8333944;28;20028;-80
2022/08/01 11:07:05;;;;;;;2.47;1.50;;;33.50;69.80;;;;;;8337340;28;20052;-81
2022/08/01 11:11:07;;;;;;;4.72;1.40;;;32.60;71.10;;;;;;8336372;28;20009;-81
2022/08/01 11:15:11;;;;;;;2.70;1.58;;;31.50;74.60;;;;;;8329757;28;20025;-81
2022/08/01 11:19:11;;;;;;;2.25;1.95;;;29.60;80.40;;;;;;8338397;28;20017;-82
2022/08/01 11:23:16;;;;;;;4.80;1.63;;;30.00;84.50;;;;;;8332889;28;20409;-82
2022/08/01 11:27:19;;;;;;;3.95;2.13;;;32.90;76.80;;;;;;8335422;28;20021;-81
2022/08/01 11:31:20;;;;;;;3.55;2.08;;;31.50;73.90;;;;;;8325604;28;20535;-81
2022/08/01 11:35:23;;;;;;;1.60;1.50;;;30.90;76.70;;;;;;8332691;28;20026;-82
2022/08/01 11:39:24;;;;;;;1.88;1.60;;;30.20;77.00;;;;;;8331231;28;20020;-82
2022/08/01 11:43:24;;;;;;;2.50;1.80;;;29.40;81.40;;;;;;8332333;28;20033;-81
2022/08/01 11:47:48;;;;;;;1.80;1.70;;;28.80;84.70;;;;;;8352986;28;20021;-81
2022/08/01 11:51:56;;;;;;;3.10;2.00;;;28.70;84.20;;;;;;8338780;28;20056;-82
2022/08/01 11:55:58;;;;;;;2.67;2.10;;;29.20;81.10;;;;;;8339754;28;20512;-81
2022/08/01 12:00:02;;;;;;;3.53;1.75;;;29.50;82.10;;;;;;8341848;28;20473;-81
2022/08/01 12:04:03;;;;;;;2.25;1.67;;;31.90;77.40;;;;;;8331820;28;20413;-81
2022/08/01 12:08:06;;;;;;;3.85;1.73;;;33.10;72.50;;;;;;8339941;28;20027;-81
2022/08/01 12:12:07;;;;;;;2.20;2.00;;;33.00;70.10;;;;;;8344657;28;20021;-82
2022/08/01 12:16:09;;;;;;;2.58;1.77;;;32.30;73.60;;;;;;8339238;28;20047;-81
2022/08/01 12:20:11;;;;;;;3.30;1.67;;;32.80;73.20;;;;;;8339884;28;20017;-82
2022/08/01 12:24:12;;;;;;;2.53;1.70;;;34.30;67.90;;;;;;8327074;28;20139;-81
2022/08/01 12:28:13;;;;;;;3.25;1.60;;;34.40;71.00;;;;;;8331289;28;20025;-81
2022/08/01 12:32:32;;;;;;;3.15;1.80;;;35.40;62.40;;;;;;8327130;28;20180;-81
2022/08/01 12:36:32;;;;;;;2.28;1.80;;;33.60;60.90;;;;;;8327055;28;20022;-81
2022/08/01 12:40:35;;;;;;;4.60;2.15;;;32.00;66.70;;;;;;8330584;28;20017;-81
2022/08/01 12:44:37;;;;;;;2.45;1.88;;;30.90;69.90;;;;;;8333656;28;20025;-81
2022/08/01 12:48:38;;;;;;;4.68;1.98;;;29.90;73.60;;;;;;8340085;28;20486;-81
2022/08/01 12:52:39;;;;;;;2.20;1.95;;;28.70;77.90;;;;;;8333508;28;20040;-81
2022/08/01 12:56:40;;;;;;;2.85;1.95;;;27.70;79.40;;;;;;8336754;28;20029;-81
2022/08/01 13:00:44;;;;;;;3.15;1.85;;;27.00;86.60;;;;;;8339955;28;20473;-81
2022/08/01 13:04:51;;;;;;;2.33;1.92;;;26.30;90.10;;;;;;8317898;28;20033;-81
2022/08/01 13:08:52;;;;;;;2.63;2.30;;;25.90;90.00;;;;;;8338992;28;20400;-81
2022/08/01 13:12:56;;;;;;;4.15;2.35;;;25.60;91.30;;;;;;8339828;28;20059;-81
2022/08/01 13:16:56;;;;;;;3.55;2.35;;;25.20;93.90;;;;;;8331599;28;20033;-80
2022/08/01 13:21:20;;;;;;;5.75;2.10;;;24.90;98.60;;;;;;8338930;28;20028;-80
2022/08/01 13:25:21;;;;;;;2.17;1.98;;;24.80;96.60;;;;;;8328582;28;20556;-80
2022/08/01 13:29:29;;;;;;;4.30;2.30;;;24.70;97.00;;;;;;8330293;28;20128;-80
2022/08/01 13:33:42;;;;;;;3.67;2.67;;;24.50;98.50;;;;;;8326903;28;20519;-80
2022/08/01 13:37:43;;;;;;;3.78;2.63;;;23.20;99.90;;;;;;8325670;28;20025;-82
2022/08/01 13:41:44;;;;;;;5.40;3.20;;;21.70;99.90;;;;;;8316692;28;20026;-79
2022/08/01 13:45:45;;;;;;;4.45;3.15;;;20.80;99.90;;;;;;8330531;28;20017;-79
2022/08/01 13:49:45;;;;;;;5.05;3.10;;;20.60;99.90;;;;;;8339060;28;20025;-79
2022/08/01 13:53:46;;;;;;;4.22;3.30;;;20.60;99.90;;;;;;8336354;28;20040;-78
2022/08/01 13:57:46;;;;;;;4.13;3.25;;;20.90;99.90;;;;;;8334435;28;20067;-78
2022/08/01 14:01:47;;;;;;;3.72;3.20;;;21.30;99.90;;;;;;8338399;28;20025;-79
2022/08/01 14:05:48;;;;;;;4.32;3.20;;;21.40;99.90;;;;;;8343153;28;20029;-79
2022/08/01 14:09:49;;;;;;;4.03;3.00;;;21.10;99.90;;;;;;8333546;28;20029;-79
2022/08/01 14:13:49;;;;;;;6.32;3.30;;;21.10;99.90;;;;;;8337620;28;20041;-80
2022/08/01 14:17:50;;;;;;;3.55;2.75;;;21.20;99.90;;;;;;8348719;28;20100;-80
2022/08/01 14:21:52;;;;;;;5.93;3.03;;;21.40;99.90;;;;;;8337177;28;20417;-81
2022/08/01 14:25:53;;;;;;;6.60;3.17;;;22.00;99.90;;;;;;8335345;28;20121;-80
2022/08/01 14:29:53;;;;;;;6.60;3.05;;;22.70;99.90;;;;;;8329284;28;20390;-81
2022/08/01 14:33:54;;;;;;;3.05;2.70;;;23.10;99.90;;;;;;8334854;28;20026;-80
2022/08/01 14:37:54;;;;;;;4.85;2.60;;;22.90;99.90;;;;;;8325124;28;20018;-81
2022/08/01 14:41:55;;;;;;;5.82;3.20;;;22.70;99.90;;;;;;8327616;28;20473;-81
2022/08/01 14:45:55;;;;;;;3.88;2.85;;;22.70;99.90;;;;;;8340699;28;20393;-80
2022/08/01 14:49:56;;;;;;;5.47;2.90;;;22.70;99.90;;;;;;8338556;28;20052;-81
2022/08/01 14:53:56;;;;;;;5.78;3.28;;;22.50;99.90;;;;;;8338070;28;20660;-80
2022/08/01 14:57:57;;;;;;;4.60;3.10;;;22.20;99.90;;;;;;8332780;28;20401;-80
2022/08/01 15:01:58;;;;;;;7.22;3.40;;;21.50;99.90;;;;;;8325626;28;20024;-79
2022/08/01 15:05:59;;;;;;;4.63;3.50;;;21.20;99.90;;;;;;8336519;28;20025;-78
2022/08/01 15:09:59;;;;;;;4.88;3.38;;;20.80;99.90;;;;;;8333774;28;20048;-78
2022/08/01 15:18:19;;;;;;;4.95;3.70;;;20.30;99.90;;;;;;8337233;28;20152;-78
2022/08/01 15:22:21;;;;;;;4.60;3.42;;;20.30;99.90;;;;;;8327890;28;20055;-78
2022/08/01 15:26:22;;;;;;;5.25;3.17;;;20.30;99.90;;;;;;8330939;28;20106;-78
2022/08/01 15:30:22;;;;;;;4.22;3.38;;;20.50;99.90;;;;;;8327290;28;20034;-78
2022/08/01 15:34:23;;;;;;;6.03;3.28;;;20.50;99.90;;;;;;8326012;28;20079;-78
2022/08/01 15:38:23;;;;;;;4.35;3.40;;;20.40;99.90;;;;;;8327334;28;20025;-79
2022/08/01 15:42:24;;;;;;;7.45;3.38;;;20.90;99.90;;;;;;8331674;28;20366;-78
2022/08/01 15:46:25;;;;;;;4.95;3.30;;;21.70;99.90;;;;;;8331573;28;20101;-78
2022/08/01 15:50:25;;;;;;;6.60;3.22;;;22.20;99.90;;;;;;8328124;28;20029;-79
2022/08/01 15:54:27;;;;;;;5.00;2.78;;;22.30;99.90;;;;;;8332977;28;20520;-78
2022/08/01 15:58:27;;;;;;;4.25;2.70;;;22.10;99.90;;;;;;8327483;28;20472;-79
2022/08/01 16:02:28;;;;;;;4.53;2.70;;;22.20;99.90;;;;;;8339623;28;20025;-79
2022/08/01 16:06:28;;;;;;;4.47;2.38;;;22.10;99.90;;;;;;8335981;28;20102;-80
2022/08/01 16:10:29;;;;;;;2.30;2.10;;;21.70;99.90;;;;;;8340733;28;20152;-79
2022/08/01 16:14:30;;;;;;;3.50;2.50;;;21.70;99.90;;;;;;8328715;28;20029;-79
2022/08/01 16:18:30;;;;;;;2.83;2.53;;;21.60;99.90;;;;;;8339167;28;20072;-79
2022/08/01 16:22:31;;;;;;;3.10;2.70;;;21.50;99.90;;;;;;8346790;22;20233;-77
2022/08/01 16:26:32;;;;;;;3.80;3.33;;;21.50;99.90;;;;;;8342597;28;20027;-77
2022/08/01 16:30:32;;;;;;;3.22;2.63;;;21.90;99.90;;;;;;8345449;28;20043;-77
2022/08/01 16:34:33;;;;;;;2.45;2.25;;;22.20;99.90;;;;;;8329379;28;20060;-77
2022/08/01 16:38:34;;;;;;;3.17;2.10;;;22.50;99.90;;;;;;8326292;28;20026;-77
2022/08/01 16:42:35;;;;;;;7.60;2.53;;;23.10;99.90;;;;;;8330820;28;20112;-77
2022/08/01 16:46:35;;;;;;;4.60;2.45;;;23.50;99.90;;;;;;8328432;28;20086;-77
2022/08/01 16:50:36;;;;;;;3.47;2.40;;;23.70;99.90;;;;;;8327819;28;20109;-77
2022/08/01 16:54:37;;;;;;;2.92;2.30;;;23.60;99.90;;;;;;8332648;28;20036;-78
2022/08/01 16:58:37;;;;;;;3.92;2.47;;;23.60;99.90;;;;;;8330958;28;20017;-77
2022/08/01 17:02:39;;;;;;;2.70;2.15;;;23.70;99.90;;;;;;8332714;28;20312;-78
2022/08/01 17:06:40;;;;;;;2.17;1.98;;;23.50;99.90;;;;;;8324605;28;20031;-78
2022/08/01 17:10:40;;;;;;;5.20;2.30;;;23.50;99.90;;;;;;8325020;28;20045;-77
2022/08/01 17:14:41;;;;;;;3.50;2.30;;;23.30;99.90;;;;;;8333582;28;20021;-78
2022/08/01 17:18:41;;;;;;;2.30;2.10;;;23.00;99.90;;;;;;8326110;28;20018;-77
2022/08/01 17:22:42;;;;;;;3.42;2.20;;;23.10;99.90;;;;;;8324717;28;20022;-80
2022/08/01 17:26:43;;;;;;;3.65;2.60;;;22.70;99.90;;;;;;8318793;28;20410;-79
2022/08/01 17:30:43;;;;;;;2.60;2.40;;;22.40;99.90;;;;;;8314983;28;20684;-79
2022/08/01 17:34:44;;;;;;;2.75;2.30;;;22.00;99.90;;;;;;8322164;28;20037;-80
2022/08/01 17:38:45;;;;;;;3.10;2.50;;;21.90;99.90;;;;;;8319398;28;20279;-79
2022/08/01 17:42:45;;;;;;;3.55;2.40;;;22.10;99.90;;;;;;8329447;28;20017;-79
2022/08/01 17:46:46;;;;;;;3.42;2.17;;;21.90;99.90;;;;;;8324159;28;20053;-80
2022/08/01 17:50:47;;;;;;;3.60;2.95;;;21.60;99.90;;;;;;8323946;28;20488;-80
2022/08/01 17:54:48;;;;;;;3.35;2.90;;;21.30;99.90;;;;;;8328896;28;20509;-80
2022/08/01 17:58:48;;;;;;;3.35;2.95;;;21.30;99.90;;;;;;8324092;28;20037;-80
2022/08/01 18:02:49;;;;;;;4.65;2.90;;;21.40;99.90;;;;;;8318335;28;20026;-80
2022/08/01 18:06:51;;;;;;;3.08;2.63;;;21.50;99.90;;;;;;8317707;28;20381;-80
2022/08/01 18:10:55;;;;;;;3.85;2.92;;;21.30;99.90;;;;;;8333120;28;20021;-80
2022/08/01 18:14:58;;;;;;;6.22;2.67;;;21.30;99.90;;;;;;8319049;28;20025;-80
2022/08/01 18:18:59;;;;;;;5.38;2.88;;;21.00;99.90;;;;;;8319799;28;20051;-80
2022/08/01 18:22:59;;;;;;;4.03;2.80;;;21.00;99.90;;;;;;8320391;28;20025;-80
2022/08/01 18:27:00;;;;;;;3.83;3.00;;;20.80;99.90;;;;;;8319151;28;20037;-80
2022/08/01 18:31:01;;;;;;;4.10;3.38;;;20.50;99.90;;;;;;8318205;28;20033;-80
2022/08/01 18:35:02;;;;;;;3.72;3.00;;;20.30;99.90;;;;;;8321119;28;20489;-80
2022/08/01 18:39:07;;;;;;;4.18;3.05;;;20.10;99.90;;;;;;8328665;28;20025;-80
2022/08/01 18:43:08;;;;;;;7.63;3.10;;;20.10;99.90;;;;;;8339034;28;20029;-81
2022/08/01 18:47:08;;;;;;;5.25;3.13;;;20.10;99.90;;;;;;8335097;28;20507;-80
2022/08/01 18:51:09;;;;;;;4.25;3.05;;;20.00;99.90;;;;;;8334747;28;20052;-80
2022/08/01 18:55:10;;;;;;;3.70;3.00;;;20.00;99.90;;;;;;8332758;28;20397;-80
2022/08/01 18:59:11;;;;;;;4.78;3.25;;;20.10;99.90;;;;;;8333173;28;20025;-79
2022/08/01 19:03:14;;;;;;;3.97;3.08;;;20.20;99.90;;;;;;8337523;28;20060;-80
2022/08/01 19:07:14;;;;;;;4.25;3.20;;;20.30;99.90;;;;;;8331105;28;20124;-80
2022/08/01 19:11:15;;;;;;;3.53;3.00;;;20.10;99.90;;;;;;8333182;28;20036;-80
2022/08/01 19:15:15;;;;;;;5.82;3.45;;;20.20;99.90;;;;;;8331973;28;20374;-79
2022/08/01 19:19:16;;;;;;;3.60;3.00;;;20.40;99.90;;;;;;8328855;28;20513;-79
2022/08/01 19:32:19;;;;;;;22.88;5.88;;;20.80;99.90;;;;;;8282394;28;20040;-82
2022/08/01 19:41:18;;;;;;;16.05;3.80;;;18.60;99.90;;;;;;8315241;28;20036;-85
2022/08/01 19:45:18;;;;;;;10.68;2.92;;;17.80;99.90;;;;;;8325202;28;20026;-84
2022/08/01 19:49:20;;;;;;;7.60;3.13;;;16.70;99.90;;;;;;8341633;28;20045;-84
2022/08/01 19:53:23;;;;;;;7.15;2.85;;;16.20;99.90;;;;;;8331609;28;20022;-83
2022/08/01 19:57:27;;;;;;;2.65;1.42;;;16.00;99.90;;;;;;8336616;28;20022;-82
2022/08/01 20:01:27;;;;;;;20.05;2.65;;;15.90;99.90;;;;;;8345450;28;20431;-84
2022/08/01 20:05:28;;;;;;;8.43;2.90;;;15.80;99.90;;;;;;8345189;28;20037;-82
2022/08/01 20:15:19;;;;;;;6.88;2.72;;;15.80;99.90;;;;;;8333197;28;20043;-85
2022/08/01 20:19:21;;;;;;;4.88;2.40;;;15.70;99.90;;;;;;8339040;28;20020;-85
2022/08/01 20:23:25;;;;;;;8.13;2.67;;;15.80;99.90;;;;;;8329828;28;20039;-84
2022/08/01 20:27:28;;;;;;;3.95;2.42;;;15.80;99.90;;;;;;8339412;28;20674;-84
2022/08/01 20:31:29;;;;;;;3.40;2.10;;;15.70;99.90;;;;;;8335355;28;20017;-83
2022/08/01 20:35:32;;;;;;;4.75;2.33;;;15.80;99.90;;;;;;8345941;28;20028;-83
2022/08/01 20:39:37;;;;;;;3.22;2.03;;;15.70;99.90;;;;;;8339222;28;20030;-83
2022/08/01 20:43:37;;;;;;;2.38;1.60;;;15.80;99.90;;;;;;8345541;28;20100;-83
2022/08/01 20:47:42;;;;;;;4.38;2.22;;;15.90;99.90;;;;;;8332188;28;20017;-83
2022/08/01 20:51:44;;;;;;;3.63;2.03;;;15.90;99.90;;;;;;8340179;28;20092;-82
2022/08/01 20:55:52;;;;;;;5.53;1.85;;;16.10;99.90;;;;;;8330491;28;20100;-82
2022/08/01 21:00:04;;;;;;;3.97;2.05;;;16.10;99.90;;;;;;8342150;28;20028;-83
2022/08/01 21:04:21;;;;;;;3.95;2.30;;;15.90;99.90;;;;;;8336556;28;20090;-83
2022/08/01 21:08:33;;;;;;;3.95;1.77;;;15.80;99.90;;;;;;8334483;28;20452;-82
2022/08/01 21:12:48;;;;;;;3.63;2.10;;;16.00;99.90;;;;;;8338967;28;20022;-82
2022/08/01 21:16:57;;;;;;;2.58;1.90;;;16.10;99.90;;;;;;8348023;28;20559;-81
2022/08/01 21:21:26;;;;;;;2.67;1.92;;;16.10;99.90;;;;;;8337441;28;20059;-82